Time;durP1;ratioP1;P1;durP2;ratioP2;P2;SDS_P1;SDS_P2;PMS_P1;PMS_P2;Temp;Humidity;BMP_temperature;BMP_pressure;BME280_temperature;BME280_humidity;BME280_pressure;Samples;Min_cycle;Max_cycle;Signal;HPM_P1;HPM_P2
2021/10/19 00:00:28;;;;;;;23.73;17.55;;;;;;;11.20;58.04;95992.25;5029547;28;20037;-83
2021/10/19 00:02:54;;;;;;;22.58;18.27;;;;;;;11.21;57.76;95989.44;5021504;28;20422;-84
2021/10/19 00:05:19;;;;;;;26.02;16.63;;;;;;;11.18;57.82;95995.06;5020624;28;20072;-84
2021/10/19 00:07:46;;;;;;;21.80;17.63;;;;;;;11.17;57.72;95996.06;4987492;28;20042;-84
2021/10/19 00:10:12;;;;;;;22.55;17.88;;;;;;;11.20;58.11;95995.63;4994191;28;20158;-84
2021/10/19 00:12:38;;;;;;;26.88;16.73;;;;;;;11.19;58.07;95995.84;4985317;28;20038;-83
2021/10/19 00:15:05;;;;;;;25.05;16.50;;;;;;;11.24;57.75;95993.44;5003727;28;20500;-83
2021/10/19 00:17:30;;;;;;;23.38;17.05;;;;;;;11.28;58.10;96003.22;5023184;28;20110;-83
2021/10/19 00:19:56;;;;;;;22.92;17.20;;;;;;;11.28;58.16;96003.22;5002060;28;20018;-83
2021/10/19 00:22:21;;;;;;;20.73;17.13;;;;;;;11.27;58.33;96001.63;5001689;28;20084;-83
2021/10/19 00:24:47;;;;;;;21.20;16.90;;;;;;;11.33;58.07;96000.81;5018237;28;20041;-83
2021/10/19 00:27:12;;;;;;;22.55;16.10;;;;;;;11.30;58.22;96005.63;5025892;28;20088;-82
2021/10/19 00:29:38;;;;;;;18.83;15.43;;;;;;;11.25;58.75;96001.06;5018849;28;20049;-81
2021/10/19 00:32:04;;;;;;;20.60;16.27;;;;;;;11.21;58.99;95999.84;4999891;28;20037;-82
2021/10/19 00:34:30;;;;;;;22.27;15.90;;;;;;;11.14;58.65;96004.28;5000215;28;20456;-83
2021/10/19 00:36:55;;;;;;;20.52;15.57;;;;;;;11.05;59.26;96000.28;5016329;28;20033;-82
2021/10/19 00:39:21;;;;;;;23.50;16.70;;;;;;;11.02;59.58;96005.91;5024831;28;20084;-83
2021/10/19 00:41:47;;;;;;;22.98;15.65;;;;;;;10.92;59.49;95995.16;4999989;28;20505;-82
2021/10/19 00:44:12;;;;;;;19.90;15.93;;;;;;;10.91;59.00;96001.38;5001576;28;20516;-83
2021/10/19 00:46:40;;;;;;;22.88;16.25;;;;;;;10.87;59.16;96002.75;5000359;28;20068;-83
2021/10/19 00:49:06;;;;;;;22.17;17.30;;;;;;;10.78;59.19;95997.78;5016688;28;20041;-83
2021/10/19 00:51:31;;;;;;;23.58;16.08;;;;;;;10.70;59.14;96003.19;5000747;28;20022;-84
2021/10/19 00:53:56;;;;;;;19.35;15.77;;;;;;;10.68;59.90;96001.78;4998632;28;20033;-84
2021/10/19 00:56:22;;;;;;;20.75;16.90;;;;;;;10.68;59.64;96005.19;5017345;28;20064;-83
2021/10/19 00:58:47;;;;;;;21.38;17.20;;;;;;;10.63;60.09;96002.41;5018038;28;20029;-83
2021/10/19 01:01:14;;;;;;;20.40;15.95;;;;;;;10.58;59.94;95999.63;5016465;28;20037;-83
2021/10/19 01:03:39;;;;;;;22.65;16.52;;;;;;;10.55;60.34;95999.22;5016144;28;20509;-83
2021/10/19 01:06:05;;;;;;;19.30;15.82;;;;;;;10.51;59.88;96004.81;5017491;28;20040;-83
2021/10/19 01:08:31;;;;;;;23.88;17.02;;;;;;;10.49;60.44;96001.63;5018775;28;20037;-83
2021/10/19 01:10:56;;;;;;;21.02;15.10;;;;;;;10.45;60.75;96002.25;5001929;28;20044;-83
2021/10/19 01:13:22;;;;;;;21.15;15.88;;;;;;;10.43;60.59;96001.66;5021421;28;20120;-83
2021/10/19 01:15:47;;;;;;;22.70;17.08;;;;;;;10.39;60.96;96001.22;5020477;28;20061;-83
2021/10/19 01:18:15;;;;;;;32.47;15.98;;;;;;;10.33;60.45;96006.44;5021544;28;20068;-83
2021/10/19 01:20:41;;;;;;;23.10;17.42;;;;;;;10.31;61.18;95998.84;5004225;28;20046;-84
2021/10/19 01:23:06;;;;;;;30.20;21.05;;;;;;;10.30;60.59;95989.44;5002864;28;20438;-83
2021/10/19 01:25:32;;;;;;;21.90;16.80;;;;;;;10.27;61.04;95991.66;5017809;28;20037;-83
2021/10/19 01:28:00;;;;;;;26.90;17.58;;;;;;;10.25;60.65;95993.63;5015940;28;20053;-82
2021/10/19 01:30:26;;;;;;;29.55;16.90;;;;;;;10.19;60.79;95993.41;5008192;28;20433;-82
2021/10/19 01:32:58;;;;;;;23.38;16.88;;;;;;;10.15;61.07;95992.22;4982608;28;20030;-82
2021/10/19 01:35:40;;;;;;;25.25;16.27;;;;;;;10.08;61.21;96004.38;5015098;28;20056;-83
2021/10/19 01:38:09;;;;;;;25.77;16.00;;;;;;;10.08;61.32;95996.59;4999282;28;20039;-84
2021/10/19 01:40:35;;;;;;;20.10;16.40;;;;;;;10.06;61.26;96000.38;5016179;28;20056;-84
2021/10/19 01:43:00;;;;;;;24.85;16.17;;;;;;;10.04;60.36;95999.78;5003102;28;20038;-84
2021/10/19 01:45:25;;;;;;;21.75;15.63;;;;;;;10.02;60.47;95994.78;5011800;28;20064;-85
2021/10/19 01:47:51;;;;;;;18.58;13.35;;;;;;;10.01;60.02;96003.59;5006846;28;20038;-85
2021/10/19 01:50:17;;;;;;;21.05;14.95;;;;;;;10.02;59.83;96005.19;5024316;28;20034;-85
2021/10/19 01:52:43;;;;;;;29.90;15.65;;;;;;;9.96;60.03;96006.00;5015502;28;20128;-85
2021/10/19 01:55:09;;;;;;;22.83;15.38;;;;;;;9.98;61.11;96014.38;5006817;28;20038;-85
2021/10/19 01:57:34;;;;;;;22.33;16.23;;;;;;;9.94;61.28;96013.19;5006270;28;20048;-85
2021/10/19 02:00:01;;;;;;;22.63;16.92;;;;;;;9.82;61.76;96015.56;5023253;28;20033;-84
2021/10/19 02:02:27;;;;;;;21.65;15.82;;;;;;;9.79;62.78;96015.97;5022649;28;20038;-85
2021/10/19 02:04:52;;;;;;;44.67;15.52;;;;;;;9.73;62.01;96014.13;5021325;28;20049;-83
2021/10/19 02:07:17;;;;;;;22.42;16.25;;;;;;;9.71;62.71;96012.72;5009494;28;20041;-83
2021/10/19 02:09:43;;;;;;;28.48;17.63;;;;;;;9.71;62.16;96015.34;5018663;28;20028;-82
2021/10/19 02:12:08;;;;;;;22.38;15.10;;;;;;;9.61;62.89;96006.13;5016584;28;20034;-82
2021/10/19 02:14:34;;;;;;;21.13;14.10;;;;;;;9.62;62.27;96009.53;5037585;28;20041;-83
2021/10/19 02:16:59;;;;;;;16.20;11.95;;;;;;;9.65;61.09;96013.53;5027026;28;20030;-84
2021/10/19 02:19:25;;;;;;;17.92;11.75;;;;;;;9.69;61.02;96012.13;4990184;28;20032;-84
2021/10/19 02:21:54;;;;;;;16.05;12.00;;;;;;;9.70;60.23;96008.53;5005830;28;20460;-84
2021/10/19 02:24:20;;;;;;;17.05;12.73;;;;;;;9.74;60.17;96015.72;5005297;28;20089;-84
2021/10/19 02:26:49;;;;;;;17.85;11.60;;;;;;;9.70;60.03;96013.72;4991734;28;20142;-85
2021/10/19 02:29:15;;;;;;;20.48;13.15;;;;;;;9.71;59.79;96002.34;5005736;28;20030;-82
2021/10/19 02:31:40;;;;;;;17.67;12.57;;;;;;;9.72;59.56;96009.94;4992752;28;20045;-82
2021/10/19 02:34:06;;;;;;;18.35;11.63;;;;;;;9.62;59.91;96015.53;5008686;28;20038;-83
2021/10/19 02:36:33;;;;;;;19.25;12.15;;;;;;;9.54;60.98;96013.09;5026781;28;20048;-82
2021/10/19 02:38:59;;;;;;;16.42;11.48;;;;;;;9.52;61.30;96012.50;5013496;28;20060;-86
2021/10/19 02:41:30;;;;;;;25.48;12.50;;;;;;;9.50;62.29;96017.09;5000368;23;20066;-85
2021/10/19 02:43:55;;;;;;;31.13;13.60;;;;;;;9.43;61.37;96011.06;4973182;28;20058;-86
2021/10/19 02:46:21;;;;;;;21.20;12.38;;;;;;;9.41;61.72;96014.84;4970146;28;20035;-86
2021/10/19 02:48:48;;;;;;;17.42;13.48;;;;;;;9.46;62.11;96020.28;4939426;29;20035;-85
2021/10/19 02:51:13;;;;;;;18.05;12.77;;;;;;;9.37;61.88;96027.41;4935747;29;20128;-83
2021/10/19 02:53:39;;;;;;;16.55;11.68;;;;;;;9.32;62.65;96029.81;4936346;29;20503;-85
2021/10/19 02:56:04;;;;;;;13.63;11.07;;;;;;;9.31;61.82;96033.41;4953880;28;20097;-85
2021/10/19 02:58:29;;;;;;;15.05;10.57;;;;;;;9.29;61.71;96030.19;4954682;28;20074;-85
2021/10/19 03:00:55;;;;;;;21.60;11.35;;;;;;;9.29;61.45;96032.78;4949364;28;20032;-83
2021/10/19 03:03:20;;;;;;;21.45;10.55;;;;;;;9.16;61.91;96032.72;4949873;29;20043;-84
2021/10/19 03:05:46;;;;;;;15.85;11.07;;;;;;;9.11;61.91;96037.66;4950732;28;20039;-84
2021/10/19 03:08:11;;;;;;;17.77;10.98;;;;;;;9.16;61.46;96035.31;4966403;28;20452;-84
2021/10/19 03:10:37;;;;;;;15.60;10.68;;;;;;;9.18;61.79;96038.53;4941867;29;20039;-84
2021/10/19 03:13:02;;;;;;;15.07;10.80;;;;;;;9.16;62.20;96041.31;4966010;29;20035;-84
2021/10/19 03:15:28;;;;;;;16.35;11.68;;;;;;;9.12;61.89;96042.69;4962749;29;20051;-85
2021/10/19 03:18:13;;;;;;;15.20;11.98;;;;;;;9.10;63.17;96046.44;4943474;29;20412;-86
2021/10/19 03:20:39;;;;;;;17.40;11.70;;;;;;;9.06;61.88;96046.03;4937680;29;20472;-84
2021/10/19 03:23:04;;;;;;;19.75;13.00;;;;;;;9.00;62.79;96047.63;4955638;29;20494;-84
2021/10/19 03:25:30;;;;;;;22.48;12.98;;;;;;;8.94;63.59;96048.34;4948421;29;20032;-82
2021/10/19 03:27:55;;;;;;;19.80;13.35;;;;;;;8.90;64.29;96056.72;4949402;29;20435;-82
2021/10/19 03:30:21;;;;;;;22.08;12.50;;;;;;;8.85;64.25;96049.53;4964396;28;20047;-81
2021/10/19 03:32:46;;;;;;;17.63;12.57;;;;;;;8.76;64.22;96040.28;4946817;29;20546;-81
2021/10/19 03:35:12;;;;;;;23.20;12.40;;;;;;;8.76;64.08;96045.47;4948458;29;20499;-81
2021/10/19 03:37:37;;;;;;;31.20;17.30;;;;;;;8.70;63.88;96039.25;4933138;29;20044;-81
2021/10/19 03:40:04;;;;;;;55.80;26.08;;;;;;;8.69;64.07;96052.41;4965146;28;20078;-81
2021/10/19 03:42:30;;;;;;;49.17;24.38;;;;;;;8.63;64.27;96053.16;4920596;29;20067;-81
2021/10/19 03:44:55;;;;;;;41.72;24.17;;;;;;;8.60;64.14;96045.75;4919180;29;20523;-81
2021/10/19 03:47:21;;;;;;;54.83;24.60;;;;;;;8.52;64.32;96044.13;4950980;28;20099;-81
2021/10/19 03:49:46;;;;;;;55.58;26.92;;;;;;;8.49;64.33;96041.09;4932606;29;20125;-81
2021/10/19 03:52:11;;;;;;;56.33;26.20;;;;;;;8.39;64.46;96039.63;4948604;29;20039;-81
2021/10/19 03:54:37;;;;;;;45.38;26.33;;;;;;;8.35;65.11;96050.56;4952918;29;20032;-81
2021/10/19 03:57:05;;;;;;;40.15;25.55;;;;;;;8.35;65.25;96042.78;4918223;29;20496;-81
2021/10/19 03:59:31;;;;;;;56.85;33.33;;;;;;;8.28;65.07;96057.44;4948961;29;20066;-80
2021/10/19 04:01:56;;;;;;;46.08;27.75;;;;;;;8.27;64.99;96050.66;4966041;28;20035;-80
2021/10/19 04:04:22;;;;;;;42.88;20.30;;;;;;;8.21;65.88;96054.78;4967370;28;20086;-81
2021/10/19 04:06:48;;;;;;;42.15;18.65;;;;;;;8.18;65.79;96057.75;4948980;29;20043;-81
2021/10/19 04:09:13;;;;;;;44.08;19.55;;;;;;;8.19;65.69;96058.56;4948295;29;20052;-83
2021/10/19 04:11:39;;;;;;;41.22;18.92;;;;;;;8.14;65.53;96061.72;4929660;29;20066;-79
2021/10/19 04:14:04;;;;;;;35.63;23.52;;;;;;;8.04;65.79;96058.63;4944623;29;20082;-79
2021/10/19 04:16:30;;;;;;;71.80;25.30;;;;;;;7.95;67.16;96062.31;4948402;28;20098;-79
2021/10/19 04:18:55;;;;;;;64.40;25.67;;;;;;;7.93;66.74;96065.09;4963291;28;20035;-80
2021/10/19 04:21:21;;;;;;;65.22;28.13;;;;;;;7.97;65.85;96068.09;4949160;28;20024;-80
2021/10/19 04:23:47;;;;;;;59.17;28.17;;;;;;;7.97;65.84;96075.88;4945446;29;20541;-83
2021/10/19 04:26:13;;;;;;;58.78;27.40;;;;;;;7.90;66.15;96068.06;4949084;28;20106;-80
2021/10/19 04:28:40;;;;;;;67.97;34.72;;;;;;;7.86;66.39;96063.44;4947408;29;20039;-80
2021/10/19 04:31:06;;;;;;;82.22;40.85;;;;;;;7.82;66.30;96068.97;4933815;29;20142;-80
2021/10/19 04:33:31;;;;;;;81.32;41.45;;;;;;;7.77;66.40;96076.47;4951514;29;20088;-81
2021/10/19 04:35:57;;;;;;;70.40;42.47;;;;;;;7.75;66.26;96077.66;4931068;29;20043;-80
2021/10/19 04:38:22;;;;;;;88.30;54.30;;;;;;;7.68;66.76;96072.41;4931577;29;20043;-84
2021/10/19 04:40:53;;;;;;;103.50;52.17;;;;;;;7.67;65.71;96070.81;4960151;28;20073;-80
2021/10/19 04:43:18;;;;;;;99.85;47.00;;;;;;;7.64;66.82;96071.16;4946782;29;20035;-79
2021/10/19 04:45:44;;;;;;;90.75;46.83;;;;;;;7.63;66.44;96074.72;4945099;28;20443;-80
2021/10/19 04:48:09;;;;;;;74.15;41.47;;;;;;;7.61;66.43;96087.06;4945059;29;20027;-80
2021/10/19 04:50:36;;;;;;;67.43;29.35;;;;;;;7.60;66.80;96084.66;4945690;28;20511;-80
2021/10/19 04:53:02;;;;;;;44.53;14.90;;;;;;;7.64;66.89;96080.69;4955363;28;20102;-79
2021/10/19 04:55:28;;;;;;;32.05;17.02;;;;;;;7.71;66.89;96087.56;4961081;28;20544;-79
2021/10/19 04:57:53;;;;;;;44.95;19.50;;;;;;;7.68;66.71;96087.94;4948979;29;20067;-80
2021/10/19 05:00:18;;;;;;;43.05;19.92;;;;;;;7.71;67.81;96103.09;4964301;28;20031;-79
2021/10/19 05:02:54;;;;;;;44.05;17.58;;;;;;;7.82;66.63;96105.25;4930895;29;20035;-80
2021/10/19 05:05:19;;;;;;;43.22;18.67;;;;;;;7.79;67.02;96100.41;4944403;29;20109;-79
2021/10/19 05:07:45;;;;;;;36.85;17.42;;;;;;;7.87;66.92;96111.66;4948408;28;20414;-79
2021/10/19 05:10:10;;;;;;;40.03;17.20;;;;;;;7.99;66.30;96115.38;4946757;29;20073;-79
2021/10/19 05:12:36;;;;;;;48.75;16.45;;;;;;;8.17;65.70;96118.34;4944595;29;20043;-80
2021/10/19 05:15:01;;;;;;;48.08;16.33;;;;;;;8.42;65.21;96121.38;4947167;29;20106;-79
2021/10/19 05:17:27;;;;;;;42.40;14.68;;;;;;;8.63;64.87;96118.00;4918185;29;20042;-80
2021/10/19 05:19:54;;;;;;;39.60;13.52;;;;;;;8.86;63.47;96130.72;4947199;29;20043;-80
2021/10/19 05:22:20;;;;;;;41.58;15.40;;;;;;;9.07;64.26;96129.88;4960802;28;20062;-79
2021/10/19 05:24:45;;;;;;;56.67;15.82;;;;;;;9.36;63.10;96134.84;4931897;29;20031;-79
2021/10/19 05:27:10;;;;;;;63.08;14.32;;;;;;;9.80;61.58;96125.88;4946880;28;20039;-80
2021/10/19 05:29:36;;;;;;;45.80;15.38;;;;;;;10.32;60.28;96133.03;4928861;29;20031;-80
2021/10/19 05:32:04;;;;;;;62.40;17.02;;;;;;;10.94;57.96;96136.28;4962536;28;20031;-79
2021/10/19 05:34:29;;;;;;;48.03;15.77;;;;;;;11.24;57.37;96140.06;4930092;29;20032;-80
2021/10/19 05:36:55;;;;;;;35.72;12.63;;;;;;;11.40;56.01;96151.84;4945790;29;20180;-79
2021/10/19 05:39:20;;;;;;;29.13;12.95;;;;;;;11.40;54.72;96154.44;4963814;28;20035;-79
2021/10/19 05:41:46;;;;;;;25.52;13.18;;;;;;;11.53;54.43;96148.38;4948671;28;20036;-79
2021/10/19 05:44:11;;;;;;;41.58;13.32;;;;;;;11.67;54.78;96155.97;4947731;28;20050;-79
2021/10/19 05:46:37;;;;;;;33.17;13.20;;;;;;;11.78;54.05;96159.75;4945629;28;20385;-80
2021/10/19 05:49:05;;;;;;;30.40;12.50;;;;;;;11.83;53.62;96159.94;4965288;28;20161;-79
2021/10/19 05:51:31;;;;;;;25.65;12.65;;;;;;;11.94;52.65;96164.53;4947265;28;20087;-79
2021/10/19 05:54:05;;;;;;;19.83;13.07;;;;;;;12.14;53.13;96161.03;4948920;29;20055;-79
2021/10/19 05:56:31;;;;;;;30.00;13.45;;;;;;;12.33;51.87;96160.91;4948003;29;20059;-79
2021/10/19 05:58:56;;;;;;;29.80;14.48;;;;;;;12.43;51.97;96170.91;4947014;29;20032;-80
2021/10/19 06:01:22;;;;;;;42.53;15.75;;;;;;;12.55;51.52;96164.03;4948164;28;20516;-80
2021/10/19 06:03:47;;;;;;;30.58;14.65;;;;;;;12.59;51.22;96162.56;4960258;28;20032;-79
2021/10/19 06:06:13;;;;;;;21.15;13.93;;;;;;;12.74;51.81;96169.31;4966502;29;20047;-78
2021/10/19 06:08:38;;;;;;;31.63;15.50;;;;;;;12.92;50.59;96174.59;4963340;29;20073;-79
2021/10/19 06:11:04;;;;;;;22.42;15.80;;;;;;;13.07;50.10;96180.31;4960933;28;20050;-79
2021/10/19 06:13:35;;;;;;;37.88;15.75;;;;;;;13.17;49.67;96177.19;4944838;29;20106;-79
2021/10/19 06:16:01;;;;;;;21.35;14.35;;;;;;;13.33;49.43;96187.13;4928707;28;20503;-80
2021/10/19 06:18:26;;;;;;;35.67;15.57;;;;;;;13.44;49.03;96185.63;4946089;29;20040;-79
2021/10/19 06:20:52;;;;;;;47.30;17.48;;;;;;;13.57;49.88;96182.88;4946090;29;20024;-79
2021/10/19 06:23:18;;;;;;;41.45;18.40;;;;;;;13.78;49.27;96190.28;4961036;28;20483;-79
2021/10/19 06:25:50;;;;;;;41.38;18.80;;;;;;;13.84;48.53;96187.84;4944483;29;20119;-79
2021/10/19 06:28:15;;;;;;;30.65;19.42;;;;;;;14.01;48.91;96183.63;4945370;29;20035;-80
2021/10/19 06:30:41;;;;;;;47.50;18.20;;;;;;;14.13;47.73;96192.31;4950004;29;20416;-79
2021/10/19 06:33:06;;;;;;;41.58;19.73;;;;;;;14.29;48.08;96196.94;4949367;29;20054;-79
2021/10/19 06:35:32;;;;;;;38.80;19.33;;;;;;;14.39;47.30;96191.19;4946850;29;20511;-79
2021/10/19 06:37:57;;;;;;;52.47;25.35;;;;;;;14.54;47.15;96190.81;4947724;28;20028;-80
2021/10/19 06:40:23;;;;;;;43.90;21.73;;;;;;;14.74;47.57;96188.72;4948295;28;20024;-80
2021/10/19 06:42:48;;;;;;;30.25;19.35;;;;;;;14.91;46.06;96201.97;4952186;29;20034;-80
2021/10/19 06:45:14;;;;;;;31.73;19.40;;;;;;;14.93;45.60;96187.63;4952192;29;20467;-80
2021/10/19 06:47:39;;;;;;;53.58;19.88;;;;;;;14.93;45.92;96197.31;4962977;28;20023;-80
2021/10/19 06:50:06;;;;;;;43.60;20.20;;;;;;;15.00;45.81;96198.00;4929484;29;20039;-78
2021/10/19 06:52:32;;;;;;;47.08;23.05;;;;;;;15.07;45.35;96197.91;4944596;28;20054;-79
2021/10/19 06:54:58;;;;;;;42.63;23.77;;;;;;;15.07;45.72;96193.44;4948227;29;20039;-80
2021/10/19 06:57:30;;;;;;;32.72;22.38;;;;;;;15.22;45.41;96200.88;4948008;28;20038;-79
2021/10/19 06:59:56;;;;;;;45.00;22.45;;;;;;;15.27;45.14;96203.59;4946870;29;20035;-81
2021/10/19 07:02:22;;;;;;;35.03;22.40;;;;;;;15.35;45.09;96213.78;4928878;29;20423;-81
2021/10/19 07:04:47;;;;;;;44.42;23.80;;;;;;;15.50;45.38;96219.38;4963512;28;20035;-81
2021/10/19 07:07:13;;;;;;;43.03;21.48;;;;;;;15.63;44.53;96212.34;4935103;29;20083;-80
2021/10/19 07:09:38;;;;;;;40.42;20.92;;;;;;;15.80;43.96;96208.00;4963054;29;20052;-79
2021/10/19 07:12:04;;;;;;;24.65;18.67;;;;;;;16.01;44.47;96212.63;4961492;28;20036;-78
2021/10/19 07:14:30;;;;;;;32.75;18.95;;;;;;;16.12;42.75;96206.56;4964880;28;20450;-78
2021/10/19 07:16:55;;;;;;;32.15;19.02;;;;;;;16.18;43.19;96203.00;4953533;29;20127;-79
2021/10/19 07:19:21;;;;;;;25.30;16.95;;;;;;;16.32;42.73;96205.34;4948633;29;20038;-79
2021/10/19 07:21:46;;;;;;;41.25;17.88;;;;;;;16.33;42.19;96202.50;4948821;29;20159;-79
2021/10/19 07:24:12;;;;;;;32.92;18.17;;;;;;;16.38;41.83;96209.66;4949768;29;20090;-79
2021/10/19 07:26:37;;;;;;;27.08;17.25;;;;;;;16.39;41.71;96208.63;4946334;29;20036;-79
2021/10/19 07:29:03;;;;;;;28.30;16.80;;;;;;;16.54;41.74;96205.50;4951086;29;20034;-79
2021/10/19 07:31:28;;;;;;;25.73;16.35;;;;;;;16.62;41.38;96203.31;4947924;29;20031;-79
2021/10/19 07:33:54;;;;;;;32.08;17.42;;;;;;;16.79;41.98;96200.75;4946623;28;20119;-79
2021/10/19 07:36:19;;;;;;;31.98;17.27;;;;;;;16.82;41.51;96204.72;4931009;29;20043;-79
2021/10/19 07:38:47;;;;;;;30.90;15.70;;;;;;;16.95;41.61;96193.91;4947971;29;20035;-79
2021/10/19 07:41:19;;;;;;;27.02;15.82;;;;;;;17.05;41.03;96192.22;4947468;28;20526;-79
2021/10/19 07:43:45;;;;;;;28.60;14.27;;;;;;;17.05;40.26;96192.22;4945826;29;20040;-79
2021/10/19 07:46:10;;;;;;;24.80;14.27;;;;;;;16.84;40.95;96195.56;4942976;29;20043;-79
2021/10/19 07:48:36;;;;;;;24.13;15.05;;;;;;;16.96;41.71;96192.88;4946823;29;20110;-79
2021/10/19 07:51:01;;;;;;;24.23;12.65;;;;;;;17.05;40.95;96199.31;4946537;28;20028;-79
2021/10/19 07:53:26;;;;;;;33.00;10.85;;;;;;;17.05;39.85;96194.84;4943686;29;20043;-79
2021/10/19 07:58:26;;;;;;;18.23;10.65;;;;;;;17.03;40.28;96190.88;5003507;28;20050;-79
2021/10/19 08:00:52;;;;;;;14.63;10.15;;;;;;;16.89;40.34;96186.97;5004279;28;20105;-79
2021/10/19 08:03:18;;;;;;;21.60;11.85;;;;;;;16.88;40.81;96188.00;4995787;28;20027;-79
2021/10/19 08:05:44;;;;;;;31.05;11.95;;;;;;;16.92;41.32;96186.47;4978570;28;20517;-79
2021/10/19 08:08:11;;;;;;;25.45;11.93;;;;;;;16.93;41.22;96188.09;4992151;28;20422;-79
2021/10/19 08:10:38;;;;;;;20.50;11.63;;;;;;;16.97;41.37;96190.00;4995026;28;20478;-79
2021/10/19 08:13:03;;;;;;;20.58;11.88;;;;;;;17.05;41.30;96188.81;4994674;28;20030;-80
2021/10/19 08:15:29;;;;;;;20.50;11.73;;;;;;;17.04;41.08;96192.47;4996597;28;20038;-79
2021/10/19 08:17:54;;;;;;;24.65;12.02;;;;;;;17.06;41.35;96190.41;4993364;28;20030;-78
2021/10/19 08:20:20;;;;;;;17.15;11.93;;;;;;;17.13;41.18;96185.78;4995713;28;20124;-79
2021/10/19 08:22:46;;;;;;;24.52;11.88;;;;;;;17.19;41.29;96186.66;4994323;28;20065;-79
2021/10/19 08:25:14;;;;;;;26.73;12.32;;;;;;;17.16;41.75;96192.41;4978154;28;20457;-80
2021/10/19 08:27:41;;;;;;;17.00;10.98;;;;;;;17.12;41.08;96193.91;4995328;28;20053;-79
2021/10/19 08:30:08;;;;;;;17.98;10.82;;;;;;;17.11;40.35;96187.88;4994098;28;20041;-80
2021/10/19 08:32:33;;;;;;;18.17;10.50;;;;;;;17.16;40.15;96189.78;4977695;28;20060;-78
2021/10/19 08:34:59;;;;;;;15.95;11.27;;;;;;;17.06;41.32;96191.19;4996320;28;20038;-82
2021/10/19 08:37:24;;;;;;;14.77;11.48;;;;;;;17.02;40.28;96184.81;4978972;28;20505;-82
2021/10/19 08:39:50;;;;;;;19.15;9.52;;;;;;;16.88;40.56;96183.53;4994975;28;20046;-81
2021/10/19 08:42:15;;;;;;;18.13;9.93;;;;;;;16.63;40.48;96186.50;4962430;28;20033;-81
2021/10/19 08:44:41;;;;;;;18.17;9.98;;;;;;;16.35;42.41;96189.94;4978258;28;20070;-81
2021/10/19 08:47:07;;;;;;;16.30;10.25;;;;;;;16.40;41.60;96192.63;4977358;28;20062;-81
2021/10/19 08:49:33;;;;;;;15.00;8.77;;;;;;;16.42;42.68;96184.53;4978727;28;20038;-82
2021/10/19 08:51:59;;;;;;;10.93;8.38;;;;;;;16.55;40.36;96181.63;4978128;28;20061;-81
2021/10/19 08:54:24;;;;;;;13.68;8.48;;;;;;;16.60;39.82;96187.00;4962542;28;20117;-81
2021/10/19 08:56:50;;;;;;;15.48;8.52;;;;;;;16.46;38.72;96183.06;4994912;28;20180;-81
2021/10/19 08:59:22;;;;;;;12.30;7.60;;;;;;;16.19;38.51;96186.22;4962374;28;20042;-81
2021/10/19 09:01:48;;;;;;;12.45;6.63;;;;;;;16.18;38.79;96183.81;4977520;28;20057;-81
2021/10/19 09:04:13;;;;;;;10.88;7.93;;;;;;;16.24;40.68;96171.59;4978012;28;20480;-81
2021/10/19 09:06:40;;;;;;;16.25;8.65;;;;;;;16.36;40.64;96169.72;4994039;28;20034;-81
2021/10/19 09:09:24;;;;;;;13.65;8.82;;;;;;;16.46;39.33;96169.91;4962011;28;20086;-83
2021/10/19 09:11:52;;;;;;;11.27;8.60;;;;;;;16.49;40.54;96174.69;4995812;28;20491;-83
2021/10/19 09:14:19;;;;;;;8.50;7.30;;;;;;;16.49;40.27;96157.13;4977193;28;20030;-83
2021/10/19 09:16:47;;;;;;;15.43;7.90;;;;;;;16.55;39.71;96158.00;4978346;28;20038;-82
2021/10/19 09:19:13;;;;;;;9.93;6.80;;;;;;;16.53;37.56;96162.69;4996136;28;20030;-82
2021/10/19 09:21:49;;;;;;;8.00;6.25;;;;;;;16.38;36.92;96165.03;4996248;28;20042;-82
2021/10/19 09:24:25;;;;;;;13.48;7.40;;;;;;;16.35;37.97;96157.63;4978037;28;20049;-82
2021/10/19 09:26:50;;;;;;;10.85;6.75;;;;;;;16.04;37.76;96164.91;5010665;28;20133;-83
2021/10/19 09:29:19;;;;;;;8.88;6.68;;;;;;;16.05;39.72;96158.66;4993716;28;20592;-83
2021/10/19 09:31:45;;;;;;;15.35;6.82;;;;;;;16.08;39.23;96158.16;4979082;28;20449;-83
2021/10/19 09:34:12;;;;;;;7.15;6.45;;;;;;;16.14;39.36;96157.25;4961167;28;20097;-83
2021/10/19 09:36:37;;;;;;;16.23;6.75;;;;;;;16.17;40.24;96148.13;4976968;28;20038;-82
2021/10/19 09:39:03;;;;;;;13.35;7.38;;;;;;;16.17;39.40;96146.28;4993455;28;20093;-82
2021/10/19 09:41:28;;;;;;;9.50;7.25;;;;;;;16.21;38.41;96144.78;4993331;28;20034;-83
2021/10/19 09:43:54;;;;;;;12.18;6.90;;;;;;;16.17;38.26;96148.91;4960557;28;20486;-82
2021/10/19 09:46:23;;;;;;;10.48;7.35;;;;;;;16.16;38.46;96139.44;4995386;28;20030;-82
2021/10/19 09:48:53;;;;;;;12.02;7.05;;;;;;;16.12;38.08;96143.56;4978731;28;20093;-82
2021/10/19 09:51:20;;;;;;;11.82;7.75;;;;;;;16.14;39.01;96138.09;4979812;28;20030;-81
2021/10/19 09:53:45;;;;;;;11.45;6.10;;;;;;;16.21;38.78;96136.91;4997687;28;20037;-82
2021/10/19 09:56:10;;;;;;;6.40;5.80;;;;;;;16.29;39.52;96132.34;4981050;28;20026;-80
2021/10/19 09:58:38;;;;;;;10.38;7.13;;;;;;;16.37;40.82;96132.75;4991959;28;20029;-80
2021/10/19 10:01:04;;;;;;;11.32;6.18;;;;;;;16.46;39.04;96133.97;4979844;28;20048;-80
2021/10/19 10:03:29;;;;;;;8.20;6.85;;;;;;;16.46;38.17;96133.16;4984745;28;20030;-82
2021/10/19 10:05:55;;;;;;;10.93;9.10;;;;;;;16.45;38.97;96136.81;5003635;28;20352;-82
2021/10/19 10:08:22;;;;;;;27.23;15.32;;;;;;;16.49;39.19;96127.44;4974132;28;20026;-82
2021/10/19 10:10:55;;;;;;;9.32;6.75;;;;;;;16.51;37.65;96120.13;4971690;28;20022;-82
2021/10/19 10:13:21;;;;;;;6.75;5.72;;;;;;;16.55;38.04;96126.47;5003501;28;20040;-83
2021/10/19 10:15:46;;;;;;;9.20;6.20;;;;;;;16.53;37.78;96123.31;4971570;28;20030;-82
2021/10/19 10:18:12;;;;;;;8.88;6.60;;;;;;;16.46;39.38;96114.78;4987451;28;20041;-82
2021/10/19 10:20:42;;;;;;;9.73;7.00;;;;;;;16.41;39.46;96109.44;4987510;28;20053;-83
2021/10/19 10:23:23;;;;;;;9.98;7.10;;;;;;;16.39;38.60;96103.63;4985904;28;20034;-82
2021/10/19 10:25:51;;;;;;;10.25;6.80;;;;;;;16.34;37.35;96100.91;4986681;28;20030;-82
2021/10/19 10:28:37;;;;;;;7.28;5.38;;;;;;;16.36;37.18;96104.09;5002127;28;20034;-83
2021/10/19 10:31:07;;;;;;;8.75;6.15;;;;;;;16.30;37.45;96091.94;5000251;28;20033;-83
2021/10/19 10:33:37;;;;;;;11.02;5.68;;;;;;;16.35;38.75;96099.88;4984451;28;20034;-81
2021/10/19 10:36:13;;;;;;;15.20;7.43;;;;;;;16.35;39.04;96089.38;4997707;28;20027;-83
2021/10/19 10:38:51;;;;;;;18.33;6.43;;;;;;;16.36;39.25;96091.78;4965059;28;20034;-83
2021/10/19 10:41:17;;;;;;;7.88;6.50;;;;;;;16.38;38.85;96087.06;4997097;28;20027;-83
2021/10/19 10:43:43;;;;;;;7.00;6.30;;;;;;;16.34;38.69;96078.09;4996625;28;20034;-83
2021/10/19 10:46:19;;;;;;;9.68;7.07;;;;;;;16.23;38.00;96080.75;4963846;28;20045;-83
2021/10/19 10:48:45;;;;;;;13.95;6.80;;;;;;;16.14;38.39;96073.28;4997272;28;20034;-82
2021/10/19 10:51:12;;;;;;;10.38;7.18;;;;;;;15.81;39.41;96079.22;4996500;28;20037;-82
2021/10/19 10:53:42;;;;;;;7.53;6.32;;;;;;;15.64;40.14;96078.38;4996346;28;20037;-83
2021/10/19 10:56:12;;;;;;;12.00;7.35;;;;;;;15.22;40.39;96080.34;5004996;28;20046;-83
2021/10/19 10:58:39;;;;;;;11.30;7.50;;;;;;;15.17;40.86;96082.88;4964045;28;20462;-82
2021/10/19 11:01:15;;;;;;;9.38;6.75;;;;;;;15.08;41.18;96086.84;4980011;28;20041;-82
2021/10/19 11:03:44;;;;;;;13.77;6.95;;;;;;;15.07;41.08;96082.63;4995586;28;20038;-82
2021/10/19 11:06:28;;;;;;;10.98;6.72;;;;;;;14.65;41.70;96085.34;4978872;28;20169;-83
2021/10/19 11:09:05;;;;;;;14.65;6.53;;;;;;;14.67;42.45;96083.31;4979844;28;20041;-82
2021/10/19 11:11:31;;;;;;;17.25;6.45;;;;;;;14.81;42.53;96078.66;4979519;28;20027;-82
2021/10/19 11:13:58;;;;;;;10.23;6.50;;;;;;;14.97;43.38;96073.53;4980623;28;20033;-82
2021/10/19 11:16:28;;;;;;;11.75;6.70;;;;;;;15.14;42.41;96067.59;4982290;28;20490;-83
2021/10/19 11:19:00;;;;;;;6.75;5.88;;;;;;;15.27;42.03;96056.84;4995532;28;20125;-83
2021/10/19 11:21:28;;;;;;;7.15;5.75;;;;;;;15.38;41.08;96061.28;4972905;28;20162;-83